sensor_id;sensor_type;location;lat;lon;timestamp;P1;durP1;ratioP1;P2;durP2;ratioP2
44143;SDS011;43510;51.920;4.492;2022-12-29T00:01:55;3.47;;;1.67;;
44143;SDS011;43510;51.920;4.492;2022-12-29T00:04:20;5.05;;;1.90;;
44143;SDS011;43510;51.920;4.492;2022-12-29T00:06:46;3.72;;;1.60;;
44143;SDS011;43510;51.920;4.492;2022-12-29T00:09:14;4.93;;;1.70;;
44143;SDS011;43510;51.920;4.492;2022-12-29T00:11:41;3.90;;;1.70;;
44143;SDS011;43510;51.920;4.492;2022-12-29T00:14:13;3.50;;;1.55;;
44143;SDS011;43510;51.920;4.492;2022-12-29T00:16:58;4.38;;;1.85;;
44143;SDS011;43510;51.920;4.492;2022-12-29T00:19:24;3.33;;;1.50;;
44143;SDS011;43510;51.920;4.492;2022-12-29T00:22:09;7.50;;;1.75;;
44143;SDS011;43510;51.920;4.492;2022-12-29T00:24:54;3.30;;;1.40;;
44143;SDS011;43510;51.920;4.492;2022-12-29T00:27:38;4.47;;;1.40;;
44143;SDS011;43510;51.920;4.492;2022-12-29T00:30:23;3.50;;;1.52;;
44143;SDS011;43510;51.920;4.492;2022-12-29T00:33:20;4.50;;;1.58;;
44143;SDS011;43510;51.920;4.492;2022-12-29T00:36:13;1.60;;;1.00;;
44143;SDS011;43510;51.920;4.492;2022-12-29T00:38:45;4.20;;;1.75;;
44143;SDS011;43510;51.920;4.492;2022-12-29T00:41:41;4.75;;;1.52;;
44143;SDS011;43510;51.920;4.492;2022-12-29T00:47:06;5.20;;;1.30;;
44143;SDS011;43510;51.920;4.492;2022-12-29T00:49:38;8.10;;;1.35;;
44143;SDS011;43510;51.920;4.492;2022-12-29T00:52:19;3.42;;;1.25;;
44143;SDS011;43510;51.920;4.492;2022-12-29T00:54:45;5.65;;;1.42;;
44143;SDS011;43510;51.920;4.492;2022-12-29T01:02:56;3.45;;;1.50;;
44143;SDS011;43510;51.920;4.492;2022-12-29T01:07:51;8.55;;;1.55;;
44143;SDS011;43510;51.920;4.492;2022-12-29T01:10:17;4.70;;;1.50;;
44143;SDS011;43510;51.920;4.492;2022-12-29T01:12:42;4.53;;;1.77;;
44143;SDS011;43510;51.920;4.492;2022-12-29T01:18:00;3.15;;;1.40;;
44143;SDS011;43510;51.920;4.492;2022-12-29T01:20:28;3.75;;;1.17;;
44143;SDS011;43510;51.920;4.492;2022-12-29T01:22:54;3.83;;;1.50;;
44143;SDS011;43510;51.920;4.492;2022-12-29T01:25:19;3.78;;;1.80;;
44143;SDS011;43510;51.920;4.492;2022-12-29T01:27:45;4.93;;;1.35;;
44143;SDS011;43510;51.920;4.492;2022-12-29T01:30:11;3.90;;;1.70;;
44143;SDS011;43510;51.920;4.492;2022-12-29T01:32:39;4.65;;;1.50;;
44143;SDS011;43510;51.920;4.492;2022-12-29T01:35:05;4.38;;;1.90;;
44143;SDS011;43510;51.920;4.492;2022-12-29T01:37:31;4.80;;;1.77;;
44143;SDS011;43510;51.920;4.492;2022-12-29T01:39:56;5.50;;;2.30;;
44143;SDS011;43510;51.920;4.492;2022-12-29T01:42:22;8.07;;;2.35;;
44143;SDS011;43510;51.920;4.492;2022-12-29T01:44:57;4.50;;;1.70;;
44143;SDS011;43510;51.920;4.492;2022-12-29T01:50:28;3.92;;;1.70;;
44143;SDS011;43510;51.920;4.492;2022-12-29T01:53:04;6.78;;;1.30;;
44143;SDS011;43510;51.920;4.492;2022-12-29T01:55:37;6.78;;;1.27;;
44143;SDS011;43510;51.920;4.492;2022-12-29T01:58:09;3.45;;;1.30;;
44143;SDS011;43510;51.920;4.492;2022-12-29T02:00:43;2.60;;;1.10;;
44143;SDS011;43510;51.920;4.492;2022-12-29T02:03:08;6.78;;;1.55;;
44143;SDS011;43510;51.920;4.492;2022-12-29T02:08:26;5.22;;;0.93;;
44143;SDS011;43510;51.920;4.492;2022-12-29T02:10:55;8.93;;;1.45;;
44143;SDS011;43510;51.920;4.492;2022-12-29T02:13:23;6.50;;;1.40;;
44143;SDS011;43510;51.920;4.492;2022-12-29T02:16:06;5.63;;;1.20;;
44143;SDS011;43510;51.920;4.492;2022-12-29T02:27:50;7.82;;;2.47;;
44143;SDS011;43510;51.920;4.492;2022-12-29T02:35:45;9.45;;;3.72;;
44143;SDS011;43510;51.920;4.492;2022-12-29T02:44:47;11.82;;;2.75;;
44143;SDS011;43510;51.920;4.492;2022-12-29T02:50:43;12.55;;;2.15;;
44143;SDS011;43510;51.920;4.492;2022-12-29T02:53:16;14.73;;;1.55;;
44143;SDS011;43510;51.920;4.492;2022-12-29T02:56:03;11.98;;;1.40;;
44143;SDS011;43510;51.920;4.492;2022-12-29T02:58:29;4.40;;;1.05;;
44143;SDS011;43510;51.920;4.492;2022-12-29T03:11:48;6.68;;;1.70;;
44143;SDS011;43510;51.920;4.492;2022-12-29T03:20:36;4.10;;;1.02;;
44143;SDS011;43510;51.920;4.492;2022-12-29T03:23:17;3.90;;;1.00;;
44143;SDS011;43510;51.920;4.492;2022-12-29T03:25:46;4.68;;;1.10;;
44143;SDS011;43510;51.920;4.492;2022-12-29T03:28:31;3.65;;;0.93;;
44143;SDS011;43510;51.920;4.492;2022-12-29T03:31:03;9.70;;;2.15;;
44143;SDS011;43510;51.920;4.492;2022-12-29T03:33:30;7.40;;;1.42;;
44143;SDS011;43510;51.920;4.492;2022-12-29T03:35:58;3.70;;;1.20;;
44143;SDS011;43510;51.920;4.492;2022-12-29T03:38:30;9.50;;;1.58;;
44143;SDS011;43510;51.920;4.492;2022-12-29T03:41:04;3.70;;;0.82;;
44143;SDS011;43510;51.920;4.492;2022-12-29T03:43:33;5.35;;;1.27;;
44143;SDS011;43510;51.920;4.492;2022-12-29T03:45:59;3.08;;;0.93;;
44143;SDS011;43510;51.920;4.492;2022-12-29T03:48:25;1.52;;;0.52;;
44143;SDS011;43510;51.920;4.492;2022-12-29T03:50:50;9.73;;;1.27;;
44143;SDS011;43510;51.920;4.492;2022-12-29T03:53:16;16.95;;;2.08;;
44143;SDS011;43510;51.920;4.492;2022-12-29T03:55:42;12.80;;;1.50;;
44143;SDS011;43510;51.920;4.492;2022-12-29T03:58:07;6.78;;;1.55;;
44143;SDS011;43510;51.920;4.492;2022-12-29T04:00:32;8.80;;;1.42;;
44143;SDS011;43510;51.920;4.492;2022-12-29T04:03:00;7.60;;;1.27;;
44143;SDS011;43510;51.920;4.492;2022-12-29T04:05:25;7.65;;;1.23;;
44143;SDS011;43510;51.920;4.492;2022-12-29T04:07:51;5.13;;;0.88;;
44143;SDS011;43510;51.920;4.492;2022-12-29T04:10:17;12.63;;;1.90;;
44143;SDS011;43510;51.920;4.492;2022-12-29T04:12:42;10.38;;;1.40;;
44143;SDS011;43510;51.920;4.492;2022-12-29T04:15:10;10.65;;;1.45;;
44143;SDS011;43510;51.920;4.492;2022-12-29T04:17:35;12.35;;;1.60;;
44143;SDS011;43510;51.920;4.492;2022-12-29T04:20:06;13.23;;;2.17;;
44143;SDS011;43510;51.920;4.492;2022-12-29T04:38:23;10.82;;;1.73;;
44143;SDS011;43510;51.920;4.492;2022-12-29T04:40:49;16.52;;;2.45;;
44143;SDS011;43510;51.920;4.492;2022-12-29T04:43:15;5.28;;;1.80;;
44143;SDS011;43510;51.920;4.492;2022-12-29T04:45:47;10.75;;;1.95;;
44143;SDS011;43510;51.920;4.492;2022-12-29T04:48:13;13.50;;;1.77;;
44143;SDS011;43510;51.920;4.492;2022-12-29T04:50:40;12.88;;;1.70;;
44143;SDS011;43510;51.920;4.492;2022-12-29T04:53:06;14.25;;;2.10;;
44143;SDS011;43510;51.920;4.492;2022-12-29T04:55:32;10.13;;;1.35;;
44143;SDS011;43510;51.920;4.492;2022-12-29T04:57:58;13.38;;;2.15;;
44143;SDS011;43510;51.920;4.492;2022-12-29T05:05:34;14.20;;;2.85;;
44143;SDS011;43510;51.920;4.492;2022-12-29T05:08:00;8.68;;;1.90;;
44143;SDS011;43510;51.920;4.492;2022-12-29T05:10:25;10.27;;;1.60;;
44143;SDS011;43510;51.920;4.492;2022-12-29T05:12:51;8.00;;;1.55;;
44143;SDS011;43510;51.920;4.492;2022-12-29T05:15:16;21.40;;;2.30;;
44143;SDS011;43510;51.920;4.492;2022-12-29T05:25:28;14.93;;;1.83;;
44143;SDS011;43510;51.920;4.492;2022-12-29T05:27:54;14.20;;;2.35;;
44143;SDS011;43510;51.920;4.492;2022-12-29T05:30:23;16.58;;;1.85;;
44143;SDS011;43510;51.920;4.492;2022-12-29T05:32:49;15.55;;;1.95;;
44143;SDS011;43510;51.920;4.492;2022-12-29T05:56:10;21.23;;;3.33;;
44143;SDS011;43510;51.920;4.492;2022-12-29T05:58:35;19.70;;;2.58;;
44143;SDS011;43510;51.920;4.492;2022-12-29T06:01:01;22.55;;;2.92;;
44143;SDS011;43510;51.920;4.492;2022-12-29T06:03:28;13.23;;;1.83;;
44143;SDS011;43510;51.920;4.492;2022-12-29T06:05:53;23.88;;;3.45;;
44143;SDS011;43510;51.920;4.492;2022-12-29T06:08:18;18.17;;;2.40;;
44143;SDS011;43510;51.920;4.492;2022-12-29T06:10:44;21.55;;;2.67;;
44143;SDS011;43510;51.920;4.492;2022-12-29T06:13:09;17.50;;;2.70;;
44143;SDS011;43510;51.920;4.492;2022-12-29T06:15:35;19.65;;;2.70;;
44143;SDS011;43510;51.920;4.492;2022-12-29T06:18:01;13.40;;;2.75;;
44143;SDS011;43510;51.920;4.492;2022-12-29T06:20:28;13.88;;;2.47;;
44143;SDS011;43510;51.920;4.492;2022-12-29T06:22:54;21.75;;;2.63;;
44143;SDS011;43510;51.920;4.492;2022-12-29T06:25:20;17.02;;;2.83;;
44143;SDS011;43510;51.920;4.492;2022-12-29T06:27:46;22.15;;;2.60;;
44143;SDS011;43510;51.920;4.492;2022-12-29T06:35:13;13.90;;;2.28;;
44143;SDS011;43510;51.920;4.492;2022-12-29T06:37:39;13.35;;;1.88;;
44143;SDS011;43510;51.920;4.492;2022-12-29T06:40:05;13.57;;;1.88;;
44143;SDS011;43510;51.920;4.492;2022-12-29T06:42:30;19.15;;;3.38;;
44143;SDS011;43510;51.920;4.492;2022-12-29T06:44:57;11.35;;;1.90;;
44143;SDS011;43510;51.920;4.492;2022-12-29T06:47:24;10.38;;;1.27;;
44143;SDS011;43510;51.920;4.492;2022-12-29T06:49:49;8.55;;;1.42;;
44143;SDS011;43510;51.920;4.492;2022-12-29T06:52:15;15.38;;;2.03;;
44143;SDS011;43510;51.920;4.492;2022-12-29T06:57:08;18.55;;;2.25;;
44143;SDS011;43510;51.920;4.492;2022-12-29T06:59:34;11.20;;;1.92;;
44143;SDS011;43510;51.920;4.492;2022-12-29T07:02:00;11.25;;;1.80;;
44143;SDS011;43510;51.920;4.492;2022-12-29T07:04:27;14.93;;;2.83;;
44143;SDS011;43510;51.920;4.492;2022-12-29T07:06:53;13.75;;;2.30;;
44143;SDS011;43510;51.920;4.492;2022-12-29T07:09:19;16.42;;;3.70;;
44143;SDS011;43510;51.920;4.492;2022-12-29T07:14:19;12.25;;;1.92;;
44143;SDS011;43510;51.920;4.492;2022-12-29T07:16:45;10.55;;;1.88;;
44143;SDS011;43510;51.920;4.492;2022-12-29T07:19:10;12.15;;;1.85;;
44143;SDS011;43510;51.920;4.492;2022-12-29T07:21:39;12.68;;;1.60;;
44143;SDS011;43510;51.920;4.492;2022-12-29T07:24:04;10.05;;;1.40;;
44143;SDS011;43510;51.920;4.492;2022-12-29T07:26:30;16.48;;;1.77;;
44143;SDS011;43510;51.920;4.492;2022-12-29T07:28:56;20.77;;;2.90;;
44143;SDS011;43510;51.920;4.492;2022-12-29T07:31:21;12.70;;;2.25;;
44143;SDS011;43510;51.920;4.492;2022-12-29T07:33:48;11.38;;;2.55;;
44143;SDS011;43510;51.920;4.492;2022-12-29T07:36:14;15.68;;;2.15;;
44143;SDS011;43510;51.920;4.492;2022-12-29T07:38:41;9.27;;;1.45;;
44143;SDS011;43510;51.920;4.492;2022-12-29T07:41:07;8.23;;;1.42;;
44143;SDS011;43510;51.920;4.492;2022-12-29T07:43:33;16.88;;;1.98;;
44143;SDS011;43510;51.920;4.492;2022-12-29T07:45:58;14.32;;;2.40;;
44143;SDS011;43510;51.920;4.492;2022-12-29T07:48:24;12.40;;;1.42;;
44143;SDS011;43510;51.920;4.492;2022-12-29T07:50:49;16.85;;;1.73;;
44143;SDS011;43510;51.920;4.492;2022-12-29T07:53:15;16.55;;;3.40;;
44143;SDS011;43510;51.920;4.492;2022-12-29T07:55:41;14.35;;;2.15;;
44143;SDS011;43510;51.920;4.492;2022-12-29T07:58:06;9.60;;;2.13;;
44143;SDS011;43510;51.920;4.492;2022-12-29T08:00:32;15.02;;;3.72;;
44143;SDS011;43510;51.920;4.492;2022-12-29T08:02:57;16.00;;;4.53;;
44143;SDS011;43510;51.920;4.492;2022-12-29T08:05:23;12.75;;;2.03;;
44143;SDS011;43510;51.920;4.492;2022-12-29T08:07:48;14.98;;;2.25;;
44143;SDS011;43510;51.920;4.492;2022-12-29T08:10:14;12.90;;;1.90;;
44143;SDS011;43510;51.920;4.492;2022-12-29T08:12:41;15.00;;;1.95;;
44143;SDS011;43510;51.920;4.492;2022-12-29T08:15:08;22.20;;;2.33;;
44143;SDS011;43510;51.920;4.492;2022-12-29T08:17:35;15.90;;;2.15;;
44143;SDS011;43510;51.920;4.492;2022-12-29T08:20:00;15.13;;;2.00;;
44143;SDS011;43510;51.920;4.492;2022-12-29T08:22:26;9.40;;;2.05;;
44143;SDS011;43510;51.920;4.492;2022-12-29T08:24:51;12.75;;;1.65;;
44143;SDS011;43510;51.920;4.492;2022-12-29T08:27:17;16.15;;;2.22;;
44143;SDS011;43510;51.920;4.492;2022-12-29T08:29:43;16.77;;;2.17;;
44143;SDS011;43510;51.920;4.492;2022-12-29T08:32:08;9.63;;;1.35;;
44143;SDS011;43510;51.920;4.492;2022-12-29T08:34:34;11.43;;;1.85;;
44143;SDS011;43510;51.920;4.492;2022-12-29T08:36:59;19.17;;;2.72;;
44143;SDS011;43510;51.920;4.492;2022-12-29T08:39:25;12.02;;;2.70;;
44143;SDS011;43510;51.920;4.492;2022-12-29T08:41:50;13.23;;;2.13;;
44143;SDS011;43510;51.920;4.492;2022-12-29T08:44:16;10.43;;;1.58;;
44143;SDS011;43510;51.920;4.492;2022-12-29T08:46:41;18.77;;;2.65;;
44143;SDS011;43510;51.920;4.492;2022-12-29T08:49:07;18.30;;;2.25;;
44143;SDS011;43510;51.920;4.492;2022-12-29T08:51:32;11.15;;;2.22;;
44143;SDS011;43510;51.920;4.492;2022-12-29T08:53:58;12.15;;;1.80;;
44143;SDS011;43510;51.920;4.492;2022-12-29T08:56:24;13.25;;;2.35;;
44143;SDS011;43510;51.920;4.492;2022-12-29T08:58:50;16.80;;;2.00;;
44143;SDS011;43510;51.920;4.492;2022-12-29T09:01:16;16.58;;;2.15;;
44143;SDS011;43510;51.920;4.492;2022-12-29T09:03:42;20.35;;;2.35;;
44143;SDS011;43510;51.920;4.492;2022-12-29T09:06:07;12.50;;;2.10;;
44143;SDS011;43510;51.920;4.492;2022-12-29T09:08:33;12.98;;;2.60;;
44143;SDS011;43510;51.920;4.492;2022-12-29T09:13:44;17.95;;;2.88;;
44143;SDS011;43510;51.920;4.492;2022-12-29T09:16:11;18.27;;;2.53;;
44143;SDS011;43510;51.920;4.492;2022-12-29T09:18:36;17.27;;;3.33;;
44143;SDS011;43510;51.920;4.492;2022-12-29T09:21:03;16.90;;;3.53;;
44143;SDS011;43510;51.920;4.492;2022-12-29T09:23:30;16.40;;;2.80;;
44143;SDS011;43510;51.920;4.492;2022-12-29T09:25:56;15.63;;;2.35;;
44143;SDS011;43510;51.920;4.492;2022-12-29T09:28:21;26.20;;;3.10;;
44143;SDS011;43510;51.920;4.492;2022-12-29T09:30:47;12.73;;;3.17;;
44143;SDS011;43510;51.920;4.492;2022-12-29T09:33:14;14.15;;;2.78;;
44143;SDS011;43510;51.920;4.492;2022-12-29T09:35:51;13.35;;;2.65;;
44143;SDS011;43510;51.920;4.492;2022-12-29T09:38:18;10.95;;;2.17;;
44143;SDS011;43510;51.920;4.492;2022-12-29T09:40:45;9.13;;;1.95;;
44143;SDS011;43510;51.920;4.492;2022-12-29T09:48:53;17.17;;;2.15;;
44143;SDS011;43510;51.920;4.492;2022-12-29T09:51:39;14.13;;;2.67;;
44143;SDS011;43510;51.920;4.492;2022-12-29T10:00:05;14.48;;;2.88;;
44143;SDS011;43510;51.920;4.492;2022-12-29T10:02:43;17.15;;;3.08;;
44143;SDS011;43510;51.920;4.492;2022-12-29T10:05:24;16.50;;;3.30;;
44143;SDS011;43510;51.920;4.492;2022-12-29T10:07:55;14.93;;;3.30;;
44143;SDS011;43510;51.920;4.492;2022-12-29T10:10:31;17.45;;;2.83;;
44143;SDS011;43510;51.920;4.492;2022-12-29T10:16:30;18.30;;;3.65;;
44143;SDS011;43510;51.920;4.492;2022-12-29T10:24:33;36.72;;;3.17;;
44143;SDS011;43510;51.920;4.492;2022-12-29T10:27:02;32.78;;;2.70;;
44143;SDS011;43510;51.920;4.492;2022-12-29T10:29:42;16.70;;;3.38;;
44143;SDS011;43510;51.920;4.492;2022-12-29T10:32:56;22.90;;;3.45;;
44143;SDS011;43510;51.920;4.492;2022-12-29T10:35:14;23.10;;;3.03;;
44143;SDS011;43510;51.920;4.492;2022-12-29T10:40:29;28.42;;;3.88;;
44143;SDS011;43510;51.920;4.492;2022-12-29T10:46:24;23.63;;;3.58;;
44143;SDS011;43510;51.920;4.492;2022-12-29T10:48:54;38.10;;;3.92;;
44143;SDS011;43510;51.920;4.492;2022-12-29T10:51:21;24.98;;;4.28;;
44143;SDS011;43510;51.920;4.492;2022-12-29T11:01:47;26.52;;;3.80;;
44143;SDS011;43510;51.920;4.492;2022-12-29T11:07:11;40.03;;;5.00;;
44143;SDS011;43510;51.920;4.492;2022-12-29T11:09:40;37.17;;;4.07;;
44143;SDS011;43510;51.920;4.492;2022-12-29T11:15:07;31.02;;;4.22;;
44143;SDS011;43510;51.920;4.492;2022-12-29T11:17:48;18.77;;;3.05;;
44143;SDS011;43510;51.920;4.492;2022-12-29T11:23:04;38.13;;;3.42;;
44143;SDS011;43510;51.920;4.492;2022-12-29T11:28:33;21.13;;;3.08;;
44143;SDS011;43510;51.920;4.492;2022-12-29T11:31:02;22.10;;;3.42;;
44143;SDS011;43510;51.920;4.492;2022-12-29T11:33:29;33.50;;;3.72;;
44143;SDS011;43510;51.920;4.492;2022-12-29T11:36:16;19.45;;;2.90;;
44143;SDS011;43510;51.920;4.492;2022-12-29T11:38:54;17.73;;;2.58;;
44143;SDS011;43510;51.920;4.492;2022-12-29T11:41:28;26.15;;;4.55;;
44143;SDS011;43510;51.920;4.492;2022-12-29T11:43:55;28.33;;;3.63;;
44143;SDS011;43510;51.920;4.492;2022-12-29T11:46:25;17.08;;;2.90;;
44143;SDS011;43510;51.920;4.492;2022-12-29T11:48:54;17.25;;;3.63;;
44143;SDS011;43510;51.920;4.492;2022-12-29T11:51:24;15.35;;;3.67;;
44143;SDS011;43510;51.920;4.492;2022-12-29T11:53:55;22.63;;;2.75;;
44143;SDS011;43510;51.920;4.492;2022-12-29T11:56:39;18.75;;;3.03;;
44143;SDS011;43510;51.920;4.492;2022-12-29T12:04:42;24.27;;;2.78;;
44143;SDS011;43510;51.920;4.492;2022-12-29T12:10:10;18.35;;;3.10;;
44143;SDS011;43510;51.920;4.492;2022-12-29T12:12:50;18.80;;;2.63;;
44143;SDS011;43510;51.920;4.492;2022-12-29T12:15:27;17.52;;;3.03;;
44143;SDS011;43510;51.920;4.492;2022-12-29T12:20:41;18.88;;;3.70;;
44143;SDS011;43510;51.920;4.492;2022-12-29T12:23:22;16.92;;;2.38;;
44143;SDS011;43510;51.920;4.492;2022-12-29T12:25:59;16.80;;;2.00;;
44143;SDS011;43510;51.920;4.492;2022-12-29T12:28:37;17.50;;;2.63;;
44143;SDS011;43510;51.920;4.492;2022-12-29T12:31:49;12.50;;;2.33;;
44143;SDS011;43510;51.920;4.492;2022-12-29T12:34:24;17.17;;;2.33;;
44143;SDS011;43510;51.920;4.492;2022-12-29T12:46:15;19.63;;;2.80;;
44143;SDS011;43510;51.920;4.492;2022-12-29T13:00:10;13.50;;;2.13;;
44143;SDS011;43510;51.920;4.492;2022-12-29T13:05:14;17.13;;;2.75;;
44143;SDS011;43510;51.920;4.492;2022-12-29T13:11:02;13.82;;;2.75;;
44143;SDS011;43510;51.920;4.492;2022-12-29T13:13:53;16.52;;;2.65;;
44143;SDS011;43510;51.920;4.492;2022-12-29T13:16:28;24.42;;;2.97;;
44143;SDS011;43510;51.920;4.492;2022-12-29T13:19:13;17.05;;;2.15;;
44143;SDS011;43510;51.920;4.492;2022-12-29T13:38:10;12.45;;;2.95;;
44143;SDS011;43510;51.920;4.492;2022-12-29T13:40:45;6.50;;;1.55;;
44143;SDS011;43510;51.920;4.492;2022-12-29T13:43:15;8.25;;;2.08;;
44143;SDS011;43510;51.920;4.492;2022-12-29T13:45:45;9.25;;;1.45;;
44143;SDS011;43510;51.920;4.492;2022-12-29T13:50:58;10.25;;;1.50;;
44143;SDS011;43510;51.920;4.492;2022-12-29T13:53:41;12.55;;;1.63;;
44143;SDS011;43510;51.920;4.492;2022-12-29T13:56:42;10.55;;;1.77;;
44143;SDS011;43510;51.920;4.492;2022-12-29T14:02:10;5.75;;;1.85;;
44143;SDS011;43510;51.920;4.492;2022-12-29T14:04:41;13.48;;;1.80;;
44143;SDS011;43510;51.920;4.492;2022-12-29T14:07:20;7.28;;;1.90;;
44143;SDS011;43510;51.920;4.492;2022-12-29T14:09:53;6.43;;;1.83;;
44143;SDS011;43510;51.920;4.492;2022-12-29T14:17:34;10.57;;;2.17;;
44143;SDS011;43510;51.920;4.492;2022-12-29T14:28:31;10.18;;;2.03;;
44143;SDS011;43510;51.920;4.492;2022-12-29T14:31:45;6.82;;;1.10;;
44143;SDS011;43510;51.920;4.492;2022-12-29T14:36:39;4.40;;;1.40;;
44143;SDS011;43510;51.920;4.492;2022-12-29T14:44:49;10.10;;;1.70;;
44143;SDS011;43510;51.920;4.492;2022-12-29T14:47:31;6.13;;;1.38;;
44143;SDS011;43510;51.920;4.492;2022-12-29T14:50:21;19.73;;;2.80;;
44143;SDS011;43510;51.920;4.492;2022-12-29T14:52:53;9.27;;;1.58;;
44143;SDS011;43510;51.920;4.492;2022-12-29T14:55:38;10.43;;;1.48;;
44143;SDS011;43510;51.920;4.492;2022-12-29T14:58:05;8.07;;;1.73;;
44143;SDS011;43510;51.920;4.492;2022-12-29T15:00:37;12.75;;;1.98;;
44143;SDS011;43510;51.920;4.492;2022-12-29T15:03:05;14.52;;;2.17;;
44143;SDS011;43510;51.920;4.492;2022-12-29T15:05:46;10.05;;;2.72;;
44143;SDS011;43510;51.920;4.492;2022-12-29T15:08:16;12.88;;;2.08;;
44143;SDS011;43510;51.920;4.492;2022-12-29T15:13:37;12.60;;;2.03;;
44143;SDS011;43510;51.920;4.492;2022-12-29T15:16:21;15.77;;;1.75;;
44143;SDS011;43510;51.920;4.492;2022-12-29T15:18:48;13.73;;;1.98;;
44143;SDS011;43510;51.920;4.492;2022-12-29T15:21:14;7.55;;;1.40;;
44143;SDS011;43510;51.920;4.492;2022-12-29T15:23:42;13.25;;;1.75;;
44143;SDS011;43510;51.920;4.492;2022-12-29T15:26:10;9.77;;;2.58;;
44143;SDS011;43510;51.920;4.492;2022-12-29T15:28:43;8.70;;;1.55;;
44143;SDS011;43510;51.920;4.492;2022-12-29T15:31:11;15.75;;;1.67;;
44143;SDS011;43510;51.920;4.492;2022-12-29T15:33:47;8.98;;;1.55;;
44143;SDS011;43510;51.920;4.492;2022-12-29T15:36:23;9.20;;;1.55;;
44143;SDS011;43510;51.920;4.492;2022-12-29T15:38:51;13.93;;;2.55;;
44143;SDS011;43510;51.920;4.492;2022-12-29T15:41:24;8.95;;;2.05;;
44143;SDS011;43510;51.920;4.492;2022-12-29T15:43:59;9.90;;;2.08;;
44143;SDS011;43510;51.920;4.492;2022-12-29T15:46:41;7.05;;;1.70;;
44143;SDS011;43510;51.920;4.492;2022-12-29T15:49:07;9.38;;;1.73;;
44143;SDS011;43510;51.920;4.492;2022-12-29T15:51:34;8.43;;;2.20;;
44143;SDS011;43510;51.920;4.492;2022-12-29T15:54:04;9.23;;;1.58;;
44143;SDS011;43510;51.920;4.492;2022-12-29T15:56:31;7.97;;;1.17;;
44143;SDS011;43510;51.920;4.492;2022-12-29T15:59:03;9.75;;;1.50;;
44143;SDS011;43510;51.920;4.492;2022-12-29T16:01:34;8.18;;;1.35;;
44143;SDS011;43510;51.920;4.492;2022-12-29T16:04:04;16.42;;;1.80;;
44143;SDS011;43510;51.920;4.492;2022-12-29T16:06:34;4.57;;;1.05;;
44143;SDS011;43510;51.920;4.492;2022-12-29T16:14:48;12.85;;;2.42;;
44143;SDS011;43510;51.920;4.492;2022-12-29T16:17:24;7.65;;;1.40;;
44143;SDS011;43510;51.920;4.492;2022-12-29T16:20:02;16.92;;;2.28;;
44143;SDS011;43510;51.920;4.492;2022-12-29T16:22:56;10.90;;;1.83;;
44143;SDS011;43510;51.920;4.492;2022-12-29T16:25:24;12.20;;;2.28;;
44143;SDS011;43510;51.920;4.492;2022-12-29T16:27:56;8.15;;;1.65;;
44143;SDS011;43510;51.920;4.492;2022-12-29T16:32:56;16.23;;;2.08;;
44143;SDS011;43510;51.920;4.492;2022-12-29T16:35:24;7.50;;;1.60;;
44143;SDS011;43510;51.920;4.492;2022-12-29T16:40:48;13.75;;;2.35;;
44143;SDS011;43510;51.920;4.492;2022-12-29T16:43:25;5.43;;;2.00;;
44143;SDS011;43510;51.920;4.492;2022-12-29T16:48:19;9.82;;;2.22;;
44143;SDS011;43510;51.920;4.492;2022-12-29T16:51:21;7.80;;;1.70;;
44143;SDS011;43510;51.920;4.492;2022-12-29T16:53:49;10.68;;;1.98;;
44143;SDS011;43510;51.920;4.492;2022-12-29T16:56:18;10.68;;;1.70;;
44143;SDS011;43510;51.920;4.492;2022-12-29T16:58:50;7.43;;;1.90;;
44143;SDS011;43510;51.920;4.492;2022-12-29T17:01:19;9.52;;;2.22;;
44143;SDS011;43510;51.920;4.492;2022-12-29T17:04:04;8.18;;;1.48;;
44143;SDS011;43510;51.920;4.492;2022-12-29T17:06:32;13.65;;;1.83;;
44143;SDS011;43510;51.920;4.492;2022-12-29T17:11:54;6.22;;;2.15;;
44143;SDS011;43510;51.920;4.492;2022-12-29T17:17:14;13.98;;;2.47;;
44143;SDS011;43510;51.920;4.492;2022-12-29T17:19:51;12.15;;;2.75;;
44143;SDS011;43510;51.920;4.492;2022-12-29T17:22:30;11.13;;;1.63;;
44143;SDS011;43510;51.920;4.492;2022-12-29T17:24:57;13.00;;;2.13;;
44143;SDS011;43510;51.920;4.492;2022-12-29T17:27:35;11.43;;;2.67;;
44143;SDS011;43510;51.920;4.492;2022-12-29T17:32:42;11.82;;;1.90;;
44143;SDS011;43510;51.920;4.492;2022-12-29T17:35:14;16.25;;;2.10;;
44143;SDS011;43510;51.920;4.492;2022-12-29T17:37:41;16.60;;;2.47;;
44143;SDS011;43510;51.920;4.492;2022-12-29T17:40:11;5.68;;;1.60;;
44143;SDS011;43510;51.920;4.492;2022-12-29T17:42:51;12.02;;;2.42;;
44143;SDS011;43510;51.920;4.492;2022-12-29T17:45:35;7.97;;;1.80;;
44143;SDS011;43510;51.920;4.492;2022-12-29T17:48:01;10.65;;;1.98;;
44143;SDS011;43510;51.920;4.492;2022-12-29T17:53:02;11.55;;;1.55;;
44143;SDS011;43510;51.920;4.492;2022-12-29T17:55:36;16.60;;;2.78;;
44143;SDS011;43510;51.920;4.492;2022-12-29T18:01:00;15.18;;;2.00;;
44143;SDS011;43510;51.920;4.492;2022-12-29T18:03:28;14.27;;;2.08;;
44143;SDS011;43510;51.920;4.492;2022-12-29T18:05:56;18.27;;;2.67;;
44143;SDS011;43510;51.920;4.492;2022-12-29T18:08:22;6.10;;;1.58;;
44143;SDS011;43510;51.920;4.492;2022-12-29T18:10:47;12.40;;;2.47;;
44143;SDS011;43510;51.920;4.492;2022-12-29T18:15:57;22.55;;;2.95;;
44143;SDS011;43510;51.920;4.492;2022-12-29T18:18:23;18.75;;;2.53;;
44143;SDS011;43510;51.920;4.492;2022-12-29T18:20:52;16.95;;;3.45;;
44143;SDS011;43510;51.920;4.492;2022-12-29T18:31:59;15.15;;;2.13;;
44143;SDS011;43510;51.920;4.492;2022-12-29T18:34:24;12.65;;;2.28;;
44143;SDS011;43510;51.920;4.492;2022-12-29T18:36:50;18.50;;;3.05;;
44143;SDS011;43510;51.920;4.492;2022-12-29T18:39:17;15.43;;;2.10;;
44143;SDS011;43510;51.920;4.492;2022-12-29T18:44:32;13.90;;;2.50;;
44143;SDS011;43510;51.920;4.492;2022-12-29T18:46:58;15.00;;;2.97;;
44143;SDS011;43510;51.920;4.492;2022-12-29T18:49:31;18.70;;;3.63;;
44143;SDS011;43510;51.920;4.492;2022-12-29T18:51:56;13.02;;;2.85;;
44143;SDS011;43510;51.920;4.492;2022-12-29T18:54:32;16.52;;;2.17;;
44143;SDS011;43510;51.920;4.492;2022-12-29T18:56:58;13.63;;;2.22;;
44143;SDS011;43510;51.920;4.492;2022-12-29T18:59:30;17.02;;;2.53;;
44143;SDS011;43510;51.920;4.492;2022-12-29T19:01:56;19.85;;;2.95;;
44143;SDS011;43510;51.920;4.492;2022-12-29T19:04:21;10.98;;;2.80;;
44143;SDS011;43510;51.920;4.492;2022-12-29T19:06:47;32.42;;;4.10;;
44143;SDS011;43510;51.920;4.492;2022-12-29T19:09:22;14.98;;;2.70;;
44143;SDS011;43510;51.920;4.492;2022-12-29T19:11:50;15.82;;;2.63;;
44143;SDS011;43510;51.920;4.492;2022-12-29T19:14:15;13.90;;;2.80;;
44143;SDS011;43510;51.920;4.492;2022-12-29T19:16:41;10.50;;;2.30;;
44143;SDS011;43510;51.920;4.492;2022-12-29T19:19:08;17.42;;;2.97;;
44143;SDS011;43510;51.920;4.492;2022-12-29T19:21:38;24.50;;;3.55;;
44143;SDS011;43510;51.920;4.492;2022-12-29T19:24:04;11.75;;;2.95;;
44143;SDS011;43510;51.920;4.492;2022-12-29T19:26:31;17.98;;;2.45;;
44143;SDS011;43510;51.920;4.492;2022-12-29T19:29:14;14.88;;;2.47;;
44143;SDS011;43510;51.920;4.492;2022-12-29T19:31:52;22.02;;;2.80;;
44143;SDS011;43510;51.920;4.492;2022-12-29T19:34:18;24.10;;;3.13;;
44143;SDS011;43510;51.920;4.492;2022-12-29T19:36:43;17.88;;;2.95;;
44143;SDS011;43510;51.920;4.492;2022-12-29T19:39:10;20.08;;;3.92;;
44143;SDS011;43510;51.920;4.492;2022-12-29T19:41:36;13.50;;;3.03;;
44143;SDS011;43510;51.920;4.492;2022-12-29T19:44:02;24.40;;;3.22;;
44143;SDS011;43510;51.920;4.492;2022-12-29T19:46:28;17.15;;;2.42;;
44143;SDS011;43510;51.920;4.492;2022-12-29T19:48:53;25.80;;;3.78;;
44143;SDS011;43510;51.920;4.492;2022-12-29T19:51:22;15.85;;;2.50;;
44143;SDS011;43510;51.920;4.492;2022-12-29T19:53:49;19.50;;;3.00;;